Time;durP1;ratioP1;P1;durP2;ratioP2;P2;SDS_P1;SDS_P2;PMS_P1;PMS_P2;Temp;Humidity;BMP_temperature;BMP_pressure;BME280_temperature;BME280_humidity;BME280_pressure;Samples;Min_cycle;Max_cycle;Signal;HPM_P1;HPM_P2
2022/04/26 03:36:13;;;;;;;;;;;;;;;7.12;100.00;95411.41;1024425;28;19922;-72
2022/04/26 03:36:44;;;;;;;;;;;;;;;6.78;100.00;95358.69;1023116;28;19922;-71
2022/04/26 03:37:17;;;;;;;;;;;;;;;7.08;100.00;95415.56;1026180;28;19922;-71
2022/04/26 03:37:47;;;;;;;;;;;;;;;7.10;100.00;95400.41;1027638;28;20035;-72
2022/04/26 03:38:18;;;;;;;;;;;;;;;7.09;100.00;95404.84;1030230;28;19937;-72
2022/04/26 03:38:48;;;;;;;;;;;;;;;7.08;100.00;95411.13;1030737;28;19928;-71
2022/04/26 03:39:19;;;;;;;;;;;;;;;7.09;100.00;95412.69;1030682;28;19928;-71
2022/04/26 03:39:49;;;;;;;;;;;;;;;7.07;100.00;95404.31;1034691;28;19929;-71
2022/04/26 03:40:19;;;;;;;;;;;;;;;7.09;100.00;95401.47;1030713;28;19957;-72
2022/04/26 03:40:50;;;;;;;;;;;;;;;7.09;100.00;95406.69;1022690;29;20344;-72
2022/04/26 03:41:20;;;;;;;;;;;;;;;7.08;100.00;95411.13;1026659;28;20439;-71
2022/04/26 03:41:50;;;;;;;;;;;;;;;7.08;100.00;95405.91;1026480;28;19921;-72
2022/04/26 03:42:20;;;;;;;;;;;;;;;7.07;100.00;95404.31;1030655;28;20482;-72
2022/04/26 03:42:51;;;;;;;;;;;;;;;7.07;100.00;95403.53;1030593;28;19918;-72
2022/04/26 03:43:21;;;;;;;;;;;;;;;7.06;100.00;95401.97;1026681;28;19928;-71
2022/04/26 03:43:51;;;;;;;;;;;;;;;7.06;100.00;95402.75;1026574;28;20334;-72
2022/04/26 03:44:22;;;;;;;;;;;;;;;7.08;100.00;95405.13;1026780;28;20408;-72
2022/04/26 03:44:52;;;;;;;;;;;;;;;7.08;100.00;95405.91;1026452;28;19961;-72
2022/04/26 03:45:22;;;;;;;;;;;;;;;7.07;100.00;95399.09;1026810;28;19922;-72
2022/04/26 03:45:53;;;;;;;;;;;;;;;7.08;100.00;95399.91;1026439;28;19918;-72
2022/04/26 03:46:23;;;;;;;;;;;;;;;7.09;100.00;95411.91;1024302;28;19918;-72
2022/04/26 03:46:53;;;;;;;;;;;;;;;7.09;100.00;95407.47;1017999;29;19915;-71
2022/04/26 03:47:27;;;;;;;;;;;;;;;7.09;100.00;95404.06;1015211;29;19926;-72
2022/04/26 03:47:57;;;;;;;;;;;;;;;7.09;100.00;95402.25;1015511;29;19927;-72
2022/04/26 03:48:27;;;;;;;;;;;;;;;7.11;100.00;95402.00;1022339;28;20732;-71
2022/04/26 03:48:58;;;;;;;;;;;;;;;7.11;100.00;95406.41;1023620;28;20013;-71
2022/04/26 03:49:28;;;;;;;;;;;;;;;7.13;100.00;95412.19;1022616;29;20555;-72
2022/04/26 03:49:58;;;;;;;;;;;;;;;7.13;100.00;95407.75;1015157;29;19927;-71
2022/04/26 03:50:29;;;;;;;;;;;;;;;7.12;100.00;95408.78;1014715;29;19922;-72
2022/04/26 03:50:59;;;;;;;;;;;;;;;7.12;100.00;95406.19;1019096;28;20476;-73
2022/04/26 03:51:30;;;;;;;;;;;;;;;7.13;100.00;95410.34;1022388;28;20785;-73
2022/04/26 03:52:01;;;;;;;;;;;;;;;7.11;100.00;95403.81;1022841;28;19954;-72
2022/04/26 03:52:31;;;;;;;;;;;;;;;7.09;100.00;95402.25;1022633;29;19922;-71
2022/04/26 03:53:01;;;;;;;;;;;;;;;7.13;100.00;95404.34;1022724;28;20017;-73
2022/04/26 03:53:33;;;;;;;;;;;;;;;7.13;100.00;95397.31;1022742;28;19921;-72
2022/04/26 03:54:03;;;;;;;;;;;;;;;7.14;100.00;95408.53;1022772;28;19915;-72
2022/04/26 03:54:33;;;;;;;;;;;;;;;7.13;100.00;95407.75;1018470;29;19915;-73
2022/04/26 03:55:04;;;;;;;;;;;;;;;7.09;100.00;95404.06;1018047;29;20522;-73
2022/04/26 03:55:37;;;;;;;;;;;;;;;7.09;100.00;95404.06;1018809;29;20499;-72
2022/04/26 03:56:07;;;;;;;;;;;;;;;7.09;100.00;95407.47;1018555;29;19997;-71
2022/04/26 03:56:38;;;;;;;;;;;;;;;7.10;100.00;95403.03;1015136;29;19907;-71
2022/04/26 03:57:08;;;;;;;;;;;;;;;7.09;100.00;95406.69;1018031;29;20015;-72
2022/04/26 03:57:38;;;;;;;;;;;;;;;7.08;100.00;95405.13;1015234;29;19923;-71
2022/04/26 03:58:09;;;;;;;;;;;;;;;7.07;100.00;95403.53;1026425;28;19918;-72
2022/04/26 03:58:39;;;;;;;;;;;;;;;7.06;100.00;95404.56;1026676;28;19918;-73
2022/04/26 03:59:09;;;;;;;;;;;;;;;7.04;100.00;95406.63;1022513;29;19918;-72
2022/04/26 03:59:40;;;;;;;;;;;;;;;7.03;100.00;95403.22;1022809;28;19914;-72
2022/04/26 04:00:10;;;;;;;;;;;;;;;7.05;100.00;95409.00;1026420;28;20323;-72
2022/04/26 04:00:41;;;;;;;;;;;;;;;7.05;100.00;95410.81;1026910;28;19985;-72
2022/04/26 04:01:11;;;;;;;;;;;;;;;7.03;100.00;95403.22;1026470;28;20052;-73
2022/04/26 04:01:41;;;;;;;;;;;;;;;7.05;100.00;95401.19;1026593;28;19976;-71
2022/04/26 04:02:12;;;;;;;;;;;;;;;7.05;100.00;95406.41;1020619;29;20001;-71
2022/04/26 04:02:42;;;;;;;;;;;;;;;7.04;100.00;95410.03;1022710;28;20474;-72
2022/04/26 04:03:12;;;;;;;;;;;;;;;7.05;100.00;95413.44;1026560;28;19925;-71
2022/04/26 04:03:43;;;;;;;;;;;;;;;7.06;100.00;95409.78;1022545;28;19958;-72
2022/04/26 04:04:13;;;;;;;;;;;;;;;7.05;100.00;95411.59;1018528;29;20007;-71
2022/04/26 04:04:44;;;;;;;;;;;;;;;7.06;100.00;95409.78;1018794;29;19926;-72
2022/04/26 04:05:14;;;;;;;;;;;;;;;7.06;100.00;95407.19;1015829;29;20392;-72
2022/04/26 04:05:44;;;;;;;;;;;;;;;7.06;100.00;95407.97;1018850;29;20678;-71
2022/04/26 04:06:15;;;;;;;;;;;;;;;7.06;100.00;95407.19;1022675;28;19974;-72
2022/04/26 04:06:45;;;;;;;;;;;;;;;7.07;100.00;95408.75;1025596;28;19925;-72
2022/04/26 04:07:15;;;;;;;;;;;;;;;7.08;100.00;95407.72;1030643;28;19925;-72
2022/04/26 04:07:46;;;;;;;;;;;;;;;7.09;100.00;95407.47;1026682;28;20459;-71
2022/04/26 04:08:16;;;;;;;;;;;;;;;7.08;100.00;95410.34;1026491;28;19965;-72
2022/04/26 04:08:46;;;;;;;;;;;;;;;7.09;100.00;95404.06;1026633;28;19918;-72
2022/04/26 04:09:17;;;;;;;;;;;;;;;7.09;100.00;95406.69;1022589;29;19914;-71
2022/04/26 04:09:47;;;;;;;;;;;;;;;7.09;100.00;95411.91;1026834;28;19918;-70
2022/04/26 04:10:17;;;;;;;;;;;;;;;7.07;100.00;95408.75;1026242;28;19918;-71
2022/04/26 04:10:48;;;;;;;;;;;;;;;7.06;100.00;95407.97;1026408;28;19922;-72
2022/04/26 04:11:18;;;;;;;;;;;;;;;7.06;100.00;95407.97;1030102;28;19914;-72
2022/04/26 04:11:49;;;;;;;;;;;;;;;7.06;100.00;95407.19;1020201;29;19925;-72
2022/04/26 04:12:19;;;;;;;;;;;;;;;7.08;100.00;95405.91;1020763;28;19928;-72
2022/04/26 04:12:50;;;;;;;;;;;;;;;7.06;100.00;95400.13;1020856;29;19931;-72
2022/04/26 04:13:20;;;;;;;;;;;;;;;7.07;100.00;95411.34;1019492;29;19919;-72
2022/04/26 04:13:50;;;;;;;;;;;;;;;7.05;100.00;95403.00;1015652;29;19923;-72
2022/04/26 04:14:21;;;;;;;;;;;;;;;7.06;100.00;95404.56;1019152;29;20005;-72
2022/04/26 04:14:51;;;;;;;;;;;;;;;7.06;100.00;95401.97;1019466;28;20445;-72
2022/04/26 04:15:24;;;;;;;;;;;;;;;7.05;100.00;95403.78;1023736;29;19976;-72
2022/04/26 04:15:55;;;;;;;;;;;;;;;7.05;100.00;95405.59;1019845;29;20652;-71
2022/04/26 04:16:25;;;;;;;;;;;;;;;7.06;100.00;95412.38;1023399;29;19969;-72
2022/04/26 04:16:57;;;;;;;;;;;;;;;7.03;100.00;95405.06;1023257;28;19911;-71
2022/04/26 04:17:28;;;;;;;;;;;;;;;7.02;100.00;95406.88;1027006;28;19943;-71
2022/04/26 04:18:01;;;;;;;;;;;;;;;7.03;100.00;95407.66;1023840;28;20451;-72
2022/04/26 04:19:24;;;;;;;;;;;;;;;7.03;100.00;95407.66;1027284;28;20444;-71
2022/04/26 04:19:58;;;;;;;;;;;;;;;7.02;100.00;95411.31;1027481;28;20013;-72
2022/04/26 04:20:29;;;;;;;;;;;;;;;7.02;100.00;95408.72;1026659;28;19918;-72
2022/04/26 04:21:03;;;;;;;;;;;;;;;7.02;100.00;95414.72;1030097;28;19967;-71
2022/04/26 04:21:33;;;;;;;;;;;;;;;7.01;100.00;95415.75;1027036;28;19914;-72
2022/04/26 04:22:05;;;;;;;;;;;;;;;7.00;100.00;95414.16;1024376;28;20648;-72
2022/04/26 04:22:35;;;;;;;;;;;;;;;7.02;100.00;95416.53;1026364;28;19922;-72
2022/04/26 04:23:05;;;;;;;;;;;;;;;7.01;100.00;95418.38;1027631;28;19913;-71
2022/04/26 04:23:36;;;;;;;;;;;;;;;7.02;100.00;95411.31;1027746;28;19914;-71
2022/04/26 04:24:08;;;;;;;;;;;;;;;7.03;100.00;95418.09;1023711;28;19919;-71
2022/04/26 04:24:38;;;;;;;;;;;;;;;7.02;100.00;95411.31;1019433;29;19923;-72
2022/04/26 04:25:08;;;;;;;;;;;;;;;7.02;100.00;95411.31;1023467;29;19914;-71
2022/04/26 04:25:39;;;;;;;;;;;;;;;7.01;100.00;95414.97;1023642;28;19925;-71
2022/04/26 04:26:09;;;;;;;;;;;;;;;7.01;100.00;95413.16;1026799;28;19918;-72
2022/04/26 04:26:47;;;;;;;;;;;;;;;7.02;100.00;95417.31;1027769;28;20312;-72
2022/04/26 04:27:17;;;;;;;;;;;;;;;7.02;100.00;95413.94;1023408;29;19953;-72
2022/04/26 04:27:48;;;;;;;;;;;;;;;7.03;100.00;95418.09;1026238;28;19926;-73
2022/04/26 04:28:18;;;;;;;;;;;;;;;7.03;100.00;95418.09;1019427;29;19925;-71
2022/04/26 04:28:48;;;;;;;;;;;;;;;7.03;100.00;95418.88;1018518;28;19958;-72
2022/04/26 04:29:19;;;;;;;;;;;;;;;7.03;100.00;95424.09;1023281;28;19927;-72
2022/04/26 04:29:51;;;;;;;;;;;;;;;7.04;100.00;95422.28;1019366;29;19918;-72
2022/04/26 04:30:21;;;;;;;;;;;;;;;7.05;100.00;95423.88;1027572;28;19928;-71
2022/04/26 04:30:52;;;;;;;;;;;;;;;7.03;100.00;95421.50;1027451;28;19981;-72
2022/04/26 04:31:22;;;;;;;;;;;;;;;7.05;100.00;95421.25;1031436;28;19921;-72
2022/04/26 04:31:52;;;;;;;;;;;;;;;7.05;100.00;95423.88;1035371;28;19941;-73
2022/04/26 04:32:23;;;;;;;;;;;;;;;7.06;100.00;95428.03;1031715;28;20457;-71
2022/04/26 04:32:53;;;;;;;;;;;;;;;7.05;100.00;95418.66;1031212;28;19930;-72
2022/04/26 04:33:23;;;;;;;;;;;;;;;7.06;100.00;95422.81;1027580;28;19922;-71
2022/04/26 04:33:54;;;;;;;;;;;;;;;7.06;100.00;95426.22;1027328;28;19922;-72
2022/04/26 04:34:24;;;;;;;;;;;;;;;7.07;100.00;95424.41;1027349;28;19922;-71
2022/04/26 04:34:54;;;;;;;;;;;;;;;7.06;100.00;95423.59;1031554;28;19929;-72
2022/04/26 04:35:24;;;;;;;;;;;;;;;7.09;100.00;95427.56;1031273;28;20001;-71
2022/04/26 04:35:55;;;;;;;;;;;;;;;7.08;100.00;95420.78;1031546;28;20561;-72
2022/04/26 04:36:28;;;;;;;;;;;;;;;7.09;100.00;95428.34;1027696;28;19925;-72
2022/04/26 04:36:59;;;;;;;;;;;;;;;7.10;100.00;95423.91;1026646;28;19938;-72
2022/04/26 04:37:29;;;;;;;;;;;;;;;7.13;100.00;95428.63;1027543;28;19920;-72
2022/04/26 04:37:59;;;;;;;;;;;;;;;7.13;100.00;95428.63;1027415;28;20398;-72
2022/04/26 04:38:29;;;;;;;;;;;;;;;7.13;100.00;95423.41;1023393;28;19961;-71
2022/04/26 04:39:00;;;;;;;;;;;;;;;7.12;100.00;95429.66;1023414;29;19925;-72
2022/04/26 04:39:30;;;;;;;;;;;;;;;7.13;100.00;95431.22;1018047;29;19911;-72
2022/04/26 04:40:00;;;;;;;;;;;;;;;7.14;100.00;95432.81;1015544;29;20648;-71
2022/04/26 04:40:31;;;;;;;;;;;;;;;7.13;100.00;95428.63;1023279;29;19922;-73
2022/04/26 04:41:01;;;;;;;;;;;;;;;7.13;100.00;95433.84;1027314;28;19945;-72
2022/04/26 04:41:36;;;;;;;;;;;;;;;7.13;100.00;95433.84;1034958;28;19922;-74
2022/04/26 04:42:06;;;;;;;;;;;;;;;7.13;100.00;95433.84;1027145;28;19957;-71
2022/04/26 04:42:36;;;;;;;;;;;;;;;7.14;100.00;95438.00;1023316;28;19918;-72
2022/04/26 04:43:06;;;;;;;;;;;;;;;7.14;100.00;95432.81;1019233;29;19954;-72
2022/04/26 04:43:40;;;;;;;;;;;;;;;7.13;100.00;95433.84;1019443;29;19998;-72
2022/04/26 04:44:11;;;;;;;;;;;;;;;7.13;100.00;95430.44;1020269;28;20259;-71
2022/04/26 04:44:41;;;;;;;;;;;;;;;7.13;100.00;95431.22;1027754;28;20424;-70
2022/04/26 04:45:11;;;;;;;;;;;;;;;7.14;100.00;95432.81;1027335;28;19922;-70
2022/04/26 04:45:41;;;;;;;;;;;;;;;7.13;100.00;95439.06;1023443;29;20430;-70
2022/04/26 04:46:12;;;;;;;;;;;;;;;7.14;100.00;95438.00;1019050;29;20412;-71
2022/04/26 04:46:43;;;;;;;;;;;;;;;7.14;100.00;95430.19;1017610;29;19919;-69
2022/04/26 04:47:13;;;;;;;;;;;;;;;7.14;100.00;95435.41;1015057;29;20025;-71
2022/04/26 04:47:44;;;;;;;;;;;;;;;7.16;100.00;95443.00;1019537;28;19918;-71
2022/04/26 04:48:14;;;;;;;;;;;;;;;7.16;100.00;95433.34;1023213;28;19945;-71
2022/04/26 04:48:45;;;;;;;;;;;;;;;7.13;100.00;95438.28;1023142;28;20413;-70
2022/04/26 04:49:15;;;;;;;;;;;;;;;7.12;100.00;95432.28;1023228;29;19922;-71
2022/04/26 04:49:46;;;;;;;;;;;;;;;7.12;100.00;95440.09;1027348;28;19918;-70
2022/04/26 04:50:17;;;;;;;;;;;;;;;7.14;100.00;95434.63;1023160;28;19918;-70
2022/04/26 04:50:47;;;;;;;;;;;;;;;7.14;100.00;95434.63;1019504;29;19922;-71
2022/04/26 04:51:17;;;;;;;;;;;;;;;7.13;100.00;95438.28;1019460;28;19922;-69
2022/04/26 04:51:48;;;;;;;;;;;;;;;7.14;100.00;95438.00;1018073;29;19930;-70
2022/04/26 04:52:18;;;;;;;;;;;;;;;7.14;100.00;95442.44;1019226;29;19970;-70
2022/04/26 04:52:48;;;;;;;;;;;;;;;7.15;100.00;95436.22;1027115;28;20276;-69
2022/04/26 04:53:19;;;;;;;;;;;;;;;7.15;100.00;95447.44;1022629;28;19928;-71
2022/04/26 04:53:50;;;;;;;;;;;;;;;7.18;100.00;95443.56;1026765;28;19965;-70
2022/04/26 04:54:20;;;;;;;;;;;;;;;7.18;100.00;95443.56;1030732;28;20362;-70
2022/04/26 04:54:52;;;;;;;;;;;;;;;7.16;100.00;95443.78;1019765;29;19922;-71
2022/04/26 04:55:23;;;;;;;;;;;;;;;7.18;100.00;95441.72;1019220;28;20025;-71
2022/04/26 04:55:53;;;;;;;;;;;;;;;7.18;100.00;95448.78;1015102;29;19939;-71
2022/04/26 04:56:26;;;;;;;;;;;;;;;7.18;100.00;95446.94;1014423;29;19919;-70
2022/04/26 04:56:56;;;;;;;;;;;;;;;7.18;100.00;95452.16;1022509;29;19911;-70
2022/04/26 04:57:27;;;;;;;;;;;;;;;7.16;100.00;95448.22;1019745;29;19922;-70
2022/04/26 04:57:57;;;;;;;;;;;;;;;7.18;100.00;95446.94;1019578;28;19929;-70
2022/04/26 04:58:27;;;;;;;;;;;;;;;7.17;100.00;95445.34;1023178;28;20467;-70
2022/04/26 04:58:58;;;;;;;;;;;;;;;7.20;100.00;95450.06;1026357;28;20093;-70
2022/04/26 04:59:28;;;;;;;;;;;;;;;7.22;100.00;95450.63;1027266;28;20396;-70
2022/04/26 05:00:02;;;;;;;;;;;;;;;7.23;100.00;95451.41;1031415;28;19965;-70
2022/04/26 05:00:32;;;;;;;;;;;;;;;7.23;100.00;95448.81;1027331;28;19926;-70
2022/04/26 05:01:02;;;;;;;;;;;;;;;7.23;100.00;95440.97;1023707;28;19954;-71
2022/04/26 05:01:33;;;;;;;;;;;;;;;7.21;100.00;95445.63;1023197;28;19918;-69
2022/04/26 05:02:03;;;;;;;;;;;;;;;7.23;100.00;95446.19;1019458;28;20404;-70
2022/04/26 05:02:33;;;;;;;;;;;;;;;7.20;100.00;95450.06;1021542;28;20025;-70
2022/04/26 05:03:04;;;;;;;;;;;;;;;7.22;100.00;95453.25;1023326;28;19929;-70
2022/04/26 05:03:34;;;;;;;;;;;;;;;7.19;100.00;95452.94;1023350;28;19918;-70
2022/04/26 05:04:04;;;;;;;;;;;;;;;7.20;100.00;95452.69;1023239;28;20005;-70
2022/04/26 05:04:36;;;;;;;;;;;;;;;7.18;100.00;95452.16;1023535;28;19984;-69
2022/04/26 05:05:10;;;;;;;;;;;;;;;7.16;100.00;95448.22;1027151;28;20311;-71
2022/04/26 05:05:40;;;;;;;;;;;;;;;7.18;100.00;95452.16;1027426;28;19949;-71
2022/04/26 05:06:14;;;;;;;;;;;;;;;7.17;100.00;95450.56;1031436;28;19925;-71
2022/04/26 05:06:46;;;;;;;;;;;;;;;7.17;100.00;95457.63;1030321;28;20437;-70
2022/04/26 05:07:16;;;;;;;;;;;;;;;7.18;100.00;95456.59;1031356;28;19921;-71
2022/04/26 05:07:47;;;;;;;;;;;;;;;7.20;100.00;95454.50;1031080;28;19961;-71
2022/04/26 05:08:18;;;;;;;;;;;;;;;7.21;100.00;95456.88;1031271;28;19928;-71
2022/04/26 05:08:48;;;;;;;;;;;;;;;7.20;100.00;95460.50;1026952;28;20141;-71
2022/04/26 05:09:18;;;;;;;;;;;;;;;7.20;100.00;95460.50;1027050;28;19930;-72
2022/04/26 05:09:50;;;;;;;;;;;;;;;7.20;100.00;95464.94;1023157;29;20013;-71
2022/04/26 05:10:21;;;;;;;;;;;;;;;7.16;100.00;95459.44;1023539;28;20009;-72
2022/04/26 05:10:52;;;;;;;;;;;;;;;7.18;100.00;95462.59;1027925;28;19937;-73
2022/04/26 05:11:23;;;;;;;;;;;;;;;7.17;100.00;95461.00;1023734;28;19980;-72
2022/04/26 05:11:53;;;;;;;;;;;;;;;7.18;100.00;95461.81;1027027;28;20664;-72
2022/04/26 05:12:23;;;;;;;;;;;;;;;7.16;100.00;95463.88;1027103;28;19922;-71
2022/04/26 05:12:54;;;;;;;;;;;;;;;7.12;100.00;95455.75;1023359;28;19950;-71
2022/04/26 05:13:24;;;;;;;;;;;;;;;7.14;100.00;95461.50;1022836;29;19918;-71
2022/04/26 05:13:54;;;;;;;;;;;;;;;7.11;100.00;95462.03;1023128;28;19922;-72
2022/04/26 05:14:25;;;;;;;;;;;;;;;7.14;100.00;95461.50;1023162;29;19925;-71
2022/04/26 05:14:55;;;;;;;;;;;;;;;7.16;100.00;95462.06;1023225;28;20347;-71
2022/04/26 05:15:25;;;;;;;;;;;;;;;7.18;100.00;95459.22;1031135;28;19922;-72
2022/04/26 05:15:56;;;;;;;;;;;;;;;7.21;100.00;95462.09;1028033;28;19918;-73
2022/04/26 05:16:26;;;;;;;;;;;;;;;7.18;100.00;95462.59;1027224;28;19925;-71
2022/04/26 05:16:56;;;;;;;;;;;;;;;7.20;100.00;95467.56;1027094;28;19965;-72
2022/04/26 05:17:27;;;;;;;;;;;;;;;7.19;100.00;95461.56;1028803;28;20021;-72
2022/04/26 05:17:57;;;;;;;;;;;;;;;7.20;100.00;95459.72;1027457;28;20473;-71
2022/04/26 05:18:31;;;;;;;;;;;;;;;7.18;100.00;95462.59;1031783;28;19957;-72
2022/04/26 05:19:01;;;;;;;;;;;;;;;7.20;100.00;95455.28;1029455;28;19929;-72
2022/04/26 05:19:31;;;;;;;;;;;;;;;7.19;100.00;95458.94;1027435;28;20415;-72
2022/04/26 05:20:02;;;;;;;;;;;;;;;7.17;100.00;95460.22;1023616;28;19914;-72
2022/04/26 05:20:32;;;;;;;;;;;;;;;7.18;100.00;95462.59;1019419;29;20293;-72
2022/04/26 05:25:18;;;;;;;;;;;;;;;7.39;100.00;95462.78;1032103;28;19952;-72
2022/04/26 05:25:49;;;;;;;;;;;;;;;7.37;100.00;95465.63;1026772;28;19952;-72
2022/04/26 05:26:19;;;;;;;;;;;;;;;7.36;100.00;95466.66;1023631;29;20308;-72
2022/04/26 05:26:49;;;;;;;;;;;;;;;7.40;100.00;95464.34;1018585;29;19919;-72
2022/04/26 05:27:26;;;;;;;;;;;;;;;7.42;100.00;95467.50;1019313;28;20401;-72
2022/04/26 05:27:56;;;;;;;;;;;;;;;7.39;100.00;95465.38;1028209;28;19922;-74
2022/04/26 05:28:26;;;;;;;;;;;;;;;7.45;100.00;95467.00;1027083;28;19926;-72
2022/04/26 05:28:57;;;;;;;;;;;;;;;7.50;100.00;95473.03;1027639;28;20720;-72
2022/04/26 05:29:27;;;;;;;;;;;;;;;7.50;100.00;95470.44;1024900;28;19926;-71
2022/04/26 05:29:58;;;;;;;;;;;;;;;7.56;100.00;95464.22;1015169;29;19929;-72
2022/04/26 05:30:28;;;;;;;;;;;;;;;7.62;100.00;95467.66;1023447;29;20344;-72
2022/04/26 05:30:58;;;;;;;;;;;;;;;7.56;100.00;95474.66;1020075;28;20234;-72
2022/04/26 05:31:28;;;;;;;;;;;;;;;7.52;100.00;95470.19;1026925;28;19928;-72
2022/04/26 05:31:59;;;;;;;;;;;;;;;7.55;100.00;95472.31;1027446;28;19906;-72
2022/04/26 05:32:32;;;;;;;;;;;;;;;7.57;100.00;95475.44;1022988;28;19937;-71
2022/04/26 05:33:02;;;;;;;;;;;;;;;7.62;100.00;95472.09;1023062;28;20001;-72
2022/04/26 05:33:32;;;;;;;;;;;;;;;7.60;100.00;95474.94;1023555;29;20009;-72
2022/04/26 05:34:03;;;;;;;;;;;;;;;7.62;100.00;95475.50;1023043;29;19930;-72
2022/04/26 05:34:33;;;;;;;;;;;;;;;7.57;100.00;95478.03;1029662;28;19922;-72
2022/04/26 05:35:11;;;;;;;;;;;;;;;7.56;100.00;95477.25;1027083;28;19922;-72
2022/04/26 05:35:42;;;;;;;;;;;;;;;7.59;100.00;95475.97;1023163;29;19945;-72
2022/04/26 05:36:12;;;;;;;;;;;;;;;7.61;100.00;95470.50;1021292;28;19923;-71
2022/04/26 05:36:42;;;;;;;;;;;;;;;7.65;100.00;95477.59;1019818;29;20464;-72
2022/04/26 05:37:13;;;;;;;;;;;;;;;7.66;100.00;95471.34;1022651;28;19922;-73
2022/04/26 05:37:43;;;;;;;;;;;;;;;7.65;100.00;95472.38;1022953;28;19918;-72
2022/04/26 05:38:16;;;;;;;;;;;;;;;7.63;100.00;95484.88;1026624;28;19922;-72
2022/04/26 05:38:47;;;;;;;;;;;;;;;7.66;100.00;95473.16;1023834;28;20372;-72
2022/04/26 05:39:18;;;;;;;;;;;;;;;7.68;100.00;95471.06;1027587;28;19926;-72
2022/04/26 05:39:48;;;;;;;;;;;;;;;7.67;100.00;95475.50;1032186;28;19921;-72
2022/04/26 05:40:18;;;;;;;;;;;;;;;7.67;100.00;95475.50;1027202;28;19933;-72
2022/04/26 05:40:49;;;;;;;;;;;;;;;7.69;100.00;95478.66;1018913;29;20216;-72
2022/04/26 05:41:19;;;;;;;;;;;;;;;7.71;100.00;95471.38;1015376;29;19927;-72
2022/04/26 05:41:50;;;;;;;;;;;;;;;7.73;100.00;95476.34;1015319;29;20520;-72
2022/04/26 05:42:20;;;;;;;;;;;;;;;7.74;100.00;95473.47;1026874;28;19922;-71
2022/04/26 05:42:57;;;;;;;;;;;;;;;7.83;100.00;95473.78;1029960;28;20258;-72
2022/04/26 05:43:33;;;;;;;;;;;;;;;7.84;100.00;95477.19;1023911;28;19920;-72
2022/04/26 05:44:04;;;;;;;;;;;;;;;7.56;100.00;95422.44;1024665;28;19980;-72
2022/04/26 05:44:38;;;;;;;;;;;;;;;7.87;100.00;95479.31;1021117;29;19977;-72
2022/04/26 05:45:11;;;;;;;;;;;;;;;7.89;100.00;95477.25;1018834;29;19923;-72
2022/04/26 05:45:41;;;;;;;;;;;;;;;7.97;100.00;95474.16;1016629;29;19923;-72
2022/04/26 05:46:12;;;;;;;;;;;;;;;8.02;100.00;95474.19;1020727;28;19922;-71
2022/04/26 05:46:42;;;;;;;;;;;;;;;8.02;100.00;95467.13;1024722;28;19926;-72
2022/04/26 05:47:12;;;;;;;;;;;;;;;8.02;100.00;95471.56;1022783;28;19973;-71
2022/04/26 05:47:43;;;;;;;;;;;;;;;7.91;100.00;95472.53;1027026;28;19954;-72
2022/04/26 05:48:13;;;;;;;;;;;;;;;7.90;100.00;95473.59;1027158;28;19922;-72
2022/04/26 05:48:44;;;;;;;;;;;;;;;7.98;100.00;95471.31;1026889;28;19924;-72
2022/04/26 05:49:14;;;;;;;;;;;;;;;8.05;100.00;95471.06;1028897;28;19950;-71
2022/04/26 05:49:44;;;;;;;;;;;;;;;8.15;100.00;95476.34;1030436;28;19922;-70
2022/04/26 05:50:14;;;;;;;;;;;;;;;8.20;100.00;95467.75;1023124;29;19918;-72
2022/04/26 05:50:45;;;;;;;;;;;;;;;8.26;100.00;95472.75;1022794;28;19923;-72
2022/04/26 05:51:15;;;;;;;;;;;;;;;8.32;100.00;95468.34;1025400;28;19907;-72
2022/04/26 05:51:51;;;;;;;;;;;;;;;8.34;100.00;95468.06;1027282;28;19945;-71
2022/04/26 05:52:24;;;;;;;;;;;;;;;8.33;100.00;95466.50;1024892;28;20362;-71
2022/04/26 05:52:54;;;;;;;;;;;;;;;8.32;100.00;95465.72;1022751;29;19929;-72
2022/04/26 05:53:24;;;;;;;;;;;;;;;8.35;100.00;95467.03;1018860;29;19927;-71
2022/04/26 05:53:55;;;;;;;;;;;;;;;8.55;100.00;95467.16;1020010;28;19923;-72
2022/04/26 05:54:25;;;;;;;;;;;;;;;8.62;100.00;95472.94;1026837;28;19948;-72
2022/04/26 05:54:56;;;;;;;;;;;;;;;8.62;100.00;95465.09;1022823;28;20099;-72
2022/04/26 05:55:29;;;;;;;;;;;;;;;8.74;100.00;95468.25;1023022;29;19944;-71
2022/04/26 05:56:00;;;;;;;;;;;;;;;8.69;100.00;95470.88;1019005;29;20425;-72
2022/04/26 05:56:30;;;;;;;;;;;;;;;8.61;100.00;95471.34;1019225;29;19919;-72
2022/04/26 05:57:00;;;;;;;;;;;;;;;8.69;100.00;95459.63;1022050;29;19977;-71
2022/04/26 05:57:31;;;;;;;;;;;;;;;8.72;100.00;95459.91;1023391;28;20026;-71
2022/04/26 05:58:02;;;;;;;;;;;;;;;8.86;100.00;95457.56;1027291;28;20710;-72
2022/04/26 05:58:32;;;;;;;;;;;;;;;8.85;100.00;95463.84;1022880;28;19923;-71
2022/04/26 05:59:05;;;;;;;;;;;;;;;8.81;100.00;95462.78;1025991;28;20106;-72
2022/04/26 05:59:35;;;;;;;;;;;;;;;8.46;100.00;95413.78;1018908;29;20432;-72
2022/04/26 06:00:06;;;;;;;;;;;;;;;8.91;100.00;95462.03;1015336;29;19979;-71
2022/04/26 06:00:37;;;;;;;;;;;;;;;8.88;100.00;95457.31;1015472;29;20401;-71
2022/04/26 06:01:11;;;;;;;;;;;;;;;8.47;100.00;95421.34;1015380;29;19934;-71
2022/04/26 06:01:42;;;;;;;;;;;;;;;8.70;100.00;95456.75;1019579;29;19926;-71
2022/04/26 06:02:12;;;;;;;;;;;;;;;8.77;100.00;95458.31;1022362;28;19930;-72
2022/04/26 06:02:43;;;;;;;;;;;;;;;8.61;100.00;95455.66;1014147;29;19925;-71
2022/04/26 06:03:13;;;;;;;;;;;;;;;8.44;100.00;95449.84;1015520;29;19925;-72
2022/04/26 06:03:43;;;;;;;;;;;;;;;8.48;100.00;95462.16;1018292;29;20014;-72
2022/04/26 06:04:14;;;;;;;;;;;;;;;8.50;100.00;95457.44;1013406;29;19923;-71
2022/04/26 06:04:44;;;;;;;;;;;;;;;8.40;100.00;95456.63;1015088;29;19930;-72
2022/04/26 06:05:15;;;;;;;;;;;;;;;8.27;100.00;95448.16;1022176;28;19919;-71
2022/04/26 06:05:48;;;;;;;;;;;;;;;8.21;100.00;95446.56;1025275;28;19910;-71
2022/04/26 06:06:19;;;;;;;;;;;;;;;8.29;100.00;95447.94;1024220;28;19926;-71
2022/04/26 06:06:49;;;;;;;;;;;;;;;8.42;100.00;95452.72;1026785;28;20706;-71
2022/04/26 06:07:19;;;;;;;;;;;;;;;8.45;100.00;95451.41;1027245;28;19922;-71
2022/04/26 06:07:50;;;;;;;;;;;;;;;8.49;100.00;95453.28;1026896;28;19920;-72
2022/04/26 06:08:23;;;;;;;;;;;;;;;8.58;100.00;95453.53;1026851;28;19984;-71
2022/04/26 06:08:53;;;;;;;;;;;;;;;8.55;100.00;95453.28;1023308;28;20557;-73
2022/04/26 06:09:23;;;;;;;;;;;;;;;8.65;100.00;95453.31;1022612;28;19922;-72
2022/04/26 06:09:57;;;;;;;;;;;;;;;8.58;100.00;95450.16;1021737;29;19946;-71
2022/04/26 06:10:28;;;;;;;;;;;;;;;8.61;100.00;95453.03;1022618;29;19961;-72
2022/04/26 06:10:58;;;;;;;;;;;;;;;8.75;100.00;95448.09;1026137;28;19918;-72
2022/04/26 06:11:29;;;;;;;;;;;;;;;8.91;100.00;95448.94;1019231;29;20551;-73
2022/04/26 06:12:02;;;;;;;;;;;;;;;8.97;100.00;95440.84;1019016;29;20412;-70
2022/04/26 06:12:34;;;;;;;;;;;;;;;9.14;100.00;95448.44;1017844;29;19925;-71
2022/04/26 06:13:05;;;;;;;;;;;;;;;9.18;100.00;95449.50;1020436;28;19926;-71
2022/04/26 06:13:35;;;;;;;;;;;;;;;9.17;100.00;95445.31;1023359;28;19918;-71
2022/04/26 06:14:07;;;;;;;;;;;;;;;9.19;100.00;95443.25;1026828;28;20298;-72
2022/04/26 06:14:37;;;;;;;;;;;;;;;9.12;100.00;95445.31;1022049;29;19922;-73
2022/04/26 06:15:08;;;;;;;;;;;;;;;9.15;100.00;95449.22;1023065;28;20021;-72
2022/04/26 06:15:41;;;;;;;;;;;;;;;9.33;100.00;95448.75;1026804;28;19918;-73
2022/04/26 06:16:11;;;;;;;;;;;;;;;9.37;100.00;95449.78;1022797;29;20577;-72
2022/04/26 06:16:41;;;;;;;;;;;;;;;9.48;100.00;95449.78;1026146;28;19929;-73
2022/04/26 06:17:12;;;;;;;;;;;;;;;9.60;100.00;95453.72;1022933;28;19958;-73
2022/04/26 06:17:42;;;;;;;;;;;;;;;9.68;100.00;95449.78;1026718;28;19922;-74
2022/04/26 06:18:14;;;;;;;;;;;;;;;9.47;100.00;95453.47;1026833;28;19937;-73
2022/04/26 06:18:45;;;;;;;;;;;;;;;9.33;100.00;95447.97;1026368;28;19918;-72
2022/04/26 06:19:15;;;;;;;;;;;;;;;9.39;100.00;95452.16;1021531;28;20412;-74
2022/04/26 06:19:45;;;;;;;;;;;;;;;9.26;100.00;95448.22;1019113;29;19922;-73
2022/04/26 06:20:16;;;;;;;;;;;;;;;9.16;100.00;95441.13;1018951;29;19914;-72
2022/04/26 06:20:46;;;;;;;;;;;;;;;9.08;100.00;95446.88;1015911;29;19919;-71
2022/04/26 06:21:17;;;;;;;;;;;;;;;9.11;100.00;95445.56;1015133;29;19926;-71
2022/04/26 06:21:47;;;;;;;;;;;;;;;9.11;100.00;95443.72;1018925;29;19926;-71